createdAt,value
2022-10-28T00:00:52.005Z,100.00
2022-10-28T00:03:20.221Z,100.00
2022-10-28T00:05:48.371Z,100.00
2022-10-28T00:08:17.937Z,100.00
2022-10-28T00:10:46.295Z,100.00
2022-10-28T00:13:14.816Z,100.00
2022-10-28T00:15:42.912Z,100.00
2022-10-28T00:18:11.349Z,100.00
2022-10-28T00:20:39.476Z,100.00
2022-10-28T00:23:07.628Z,100.00
2022-10-28T00:25:37.441Z,100.00
2022-10-28T00:28:05.898Z,100.00
2022-10-28T00:30:34.022Z,100.00
2022-10-28T00:33:02.134Z,100.00
2022-10-28T00:35:30.307Z,100.00
2022-10-28T00:37:58.726Z,100.00
2022-10-28T00:40:26.894Z,100.00
2022-10-28T00:42:56.421Z,100.00
2022-10-28T00:45:24.537Z,100.00
2022-10-28T00:47:56.093Z,100.00
2022-10-28T00:50:41.530Z,100.00
2022-10-28T00:53:12.319Z,100.00
2022-10-28T00:55:40.542Z,100.00
2022-10-28T00:58:10.147Z,100.00
2022-10-28T01:00:38.299Z,100.00
2022-10-28T01:03:06.397Z,100.00
2022-10-28T01:05:35.999Z,100.00
2022-10-28T01:08:04.802Z,100.00
2022-10-28T01:10:51.053Z,100.00
2022-10-28T01:13:25.361Z,99.81
2022-10-28T01:15:56.910Z,99.50
2022-10-28T01:18:29.073Z,98.22
2022-10-28T01:21:41.388Z,97.82
2022-10-28T01:24:16.916Z,98.56
2022-10-28T01:27:05.848Z,99.11
2022-10-28T01:30:04.164Z,98.63
2022-10-28T01:32:35.086Z,99.46
2022-10-28T01:35:10.061Z,99.36
2022-10-28T01:37:39.650Z,98.71
2022-10-28T01:40:10.208Z,98.35
2022-10-28T01:42:40.970Z,98.53
2022-10-28T01:45:12.860Z,99.11
2022-10-28T01:47:44.219Z,97.93
2022-10-28T01:50:16.901Z,98.34
2022-10-28T01:52:45.017Z,99.19
2022-10-28T01:55:14.733Z,99.80
2022-10-28T01:57:42.937Z,99.45
2022-10-28T02:00:12.750Z,100.00
2022-10-28T02:02:42.828Z,100.00
2022-10-28T02:05:41.914Z,100.00
2022-10-28T02:08:32.516Z,100.00
2022-10-28T02:11:13.006Z,100.00
2022-10-28T02:13:47.992Z,100.00
2022-10-28T02:16:19.872Z,100.00
2022-10-28T02:18:50.836Z,100.00
2022-10-28T02:21:21.425Z,100.00
2022-10-28T02:23:51.039Z,100.00
2022-10-28T02:26:22.790Z,100.00
2022-10-28T02:28:55.140Z,100.00
2022-10-28T02:31:25.368Z,100.00
2022-10-28T02:33:56.061Z,100.00
2022-10-28T02:36:24.608Z,100.00
2022-10-28T02:38:54.534Z,100.00
2022-10-28T02:41:24.967Z,100.00
2022-10-28T02:43:54.649Z,100.00
2022-10-28T02:46:22.855Z,100.00
2022-10-28T02:48:52.202Z,100.00
2022-10-28T02:51:22.874Z,100.00
2022-10-28T02:53:57.627Z,100.00
2022-10-28T02:56:25.803Z,100.00
2022-10-28T02:58:53.933Z,100.00
2022-10-28T03:01:22.323Z,100.00
2022-10-28T03:03:50.602Z,100.00
2022-10-28T03:06:19.360Z,100.00
2022-10-28T03:08:48.943Z,100.00
2022-10-28T03:11:17.090Z,100.00
2022-10-28T03:13:45.178Z,100.00
2022-10-28T03:16:13.369Z,100.00
2022-10-28T03:18:41.645Z,100.00
2022-10-28T03:21:10.019Z,100.00
2022-10-28T03:23:38.141Z,100.00
2022-10-28T03:26:07.775Z,100.00
2022-10-28T03:28:35.909Z,100.00
2022-10-28T03:31:04.082Z,100.00
2022-10-28T03:33:32.254Z,100.00
2022-10-28T03:36:00.674Z,100.00
2022-10-28T03:38:28.838Z,100.00
2022-10-28T03:40:56.966Z,100.00
2022-10-28T03:43:26.474Z,100.00
2022-10-28T03:45:54.693Z,100.00
2022-10-28T03:48:23.122Z,100.00
2022-10-28T03:50:54.008Z,100.00
2022-10-28T03:53:23.550Z,100.00
2022-10-28T03:55:54.196Z,100.00
2022-10-28T03:58:22.431Z,100.00
2022-10-28T04:00:52.393Z,100.00
2022-10-28T04:03:21.095Z,100.00
2022-10-28T04:05:49.489Z,100.00
2022-10-28T04:08:17.793Z,100.00
2022-10-28T04:10:47.495Z,100.00
2022-10-28T04:13:15.984Z,100.00
2022-10-28T04:15:44.372Z,100.00
2022-10-28T04:18:14.157Z,100.00
2022-10-28T04:20:42.289Z,100.00
2022-10-28T04:23:10.417Z,100.00
2022-10-28T04:25:38.604Z,100.00
2022-10-28T04:28:07.025Z,100.00
2022-10-28T04:30:35.340Z,100.00
2022-10-28T04:33:03.423Z,100.00
2022-10-28T04:35:32.939Z,100.00
2022-10-28T04:38:01.045Z,100.00
2022-10-28T04:40:29.153Z,100.00
2022-10-28T04:42:57.508Z,100.00
2022-10-28T04:45:25.705Z,100.00
2022-10-28T04:47:58.353Z,100.00
2022-10-28T04:50:26.489Z,100.00
2022-10-28T04:52:56.676Z,100.00
2022-10-28T04:55:25.474Z,100.00
2022-10-28T04:57:56.506Z,100.00
2022-10-28T05:00:24.691Z,100.00
2022-10-28T05:02:53.148Z,100.00
2022-10-28T05:05:21.443Z,100.00
2022-10-28T05:07:49.586Z,100.00
2022-10-28T05:10:19.225Z,100.00
2022-10-28T05:12:47.284Z,100.00
2022-10-28T05:15:15.706Z,100.00
2022-10-28T05:17:44.639Z,100.00
2022-10-28T05:20:13.092Z,100.00
2022-10-28T05:22:46.569Z,100.00
2022-10-28T05:25:14.869Z,100.00
2022-10-28T05:27:44.659Z,100.00
2022-10-28T05:30:13.218Z,100.00
2022-10-28T05:32:41.303Z,100.00
2022-10-28T05:35:10.266Z,100.00
2022-10-28T05:37:38.649Z,100.00
2022-10-28T05:40:07.653Z,100.00
2022-10-28T05:42:35.856Z,100.00
2022-10-28T05:45:06.120Z,100.00
2022-10-28T05:47:36.480Z,100.00
2022-10-28T05:50:08.509Z,100.00
2022-10-28T05:52:36.608Z,100.00
2022-10-28T05:55:04.946Z,100.00
2022-10-28T05:57:35.159Z,100.00
2022-10-28T06:00:03.573Z,100.00
2022-10-28T06:02:41.992Z,100.00
2022-10-28T06:05:11.700Z,100.00
2022-10-28T06:07:40.281Z,100.00
2022-10-28T06:10:09.450Z,100.00
2022-10-28T06:12:35.978Z,100.00
2022-10-28T06:15:04.907Z,100.00
2022-10-28T06:17:33.332Z,100.00
2022-10-28T06:20:03.305Z,100.00
2022-10-28T06:22:31.406Z,100.00
2022-10-28T06:24:59.569Z,100.00
2022-10-28T06:27:27.730Z,100.00
2022-10-28T06:29:56.110Z,100.00
2022-10-28T06:32:24.518Z,100.00
2022-10-28T06:34:52.647Z,100.00
2022-10-28T06:37:22.160Z,100.00
2022-10-28T06:39:52.081Z,100.00
2022-10-28T06:42:20.466Z,100.00
2022-10-28T06:44:49.335Z,100.00
2022-10-28T06:47:18.938Z,100.00
2022-10-28T06:49:47.058Z,100.00
2022-10-28T06:52:15.159Z,100.00
2022-10-28T06:54:44.690Z,100.00
2022-10-28T06:57:13.084Z,100.00
2022-10-28T06:59:42.124Z,100.00
2022-10-28T07:02:11.540Z,100.00
2022-10-28T07:04:39.731Z,100.00
2022-10-28T07:07:07.811Z,100.00
2022-10-28T07:09:39.483Z,100.00
2022-10-28T07:12:09.924Z,100.00
2022-10-28T07:14:38.010Z,100.00
2022-10-28T07:17:06.112Z,100.00
2022-10-28T07:19:34.252Z,100.00
2022-10-28T07:22:02.325Z,100.00
2022-10-28T07:24:30.732Z,100.00
2022-10-28T07:26:58.853Z,100.00
2022-10-28T07:29:28.665Z,100.00
2022-10-28T07:31:56.838Z,98.18
2022-10-28T07:34:27.162Z,98.65
2022-10-28T07:36:55.973Z,98.51
2022-10-28T07:39:24.451Z,99.83
2022-10-28T07:41:52.624Z,97.32
2022-10-28T07:44:20.728Z,97.95
2022-10-28T07:46:53.053Z,97.75
2022-10-28T07:49:23.879Z,96.58
2022-10-28T07:51:51.985Z,95.48
2022-10-28T07:54:20.430Z,95.89
2022-10-28T07:56:48.562Z,94.68
2022-10-28T07:59:16.672Z,93.72
2022-10-28T08:01:44.952Z,92.29
2022-10-28T08:04:14.609Z,92.69
2022-10-28T08:06:44.310Z,92.72
2022-10-28T08:09:12.494Z,90.90
2022-10-28T08:11:40.618Z,91.13
2022-10-28T08:14:08.874Z,90.71
2022-10-28T08:16:36.933Z,89.54
2022-10-28T08:19:07.653Z,90.04
2022-10-28T08:21:37.728Z,90.12
2022-10-28T08:24:06.105Z,90.03
2022-10-28T08:26:34.208Z,89.46
2022-10-28T08:29:02.314Z,87.94
2022-10-28T08:31:30.438Z,89.40
2022-10-28T08:33:58.531Z,90.06
2022-10-28T08:36:26.888Z,90.47
2022-10-28T08:38:56.874Z,89.83
2022-10-28T08:41:32.626Z,89.68
2022-10-28T08:44:18.558Z,89.93
2022-10-28T08:46:54.176Z,90.14
2022-10-28T08:49:23.255Z,90.07
2022-10-28T08:51:53.641Z,90.84
2022-10-28T08:54:25.962Z,91.35
2022-10-28T08:56:56.185Z,91.29
2022-10-28T08:59:26.738Z,91.27
2022-10-28T09:04:33.136Z,89.50
2022-10-28T09:07:01.196Z,86.91
2022-10-28T09:09:30.725Z,84.90
2022-10-28T09:12:05.316Z,83.76
2022-10-28T09:15:06.862Z,87.01
2022-10-28T09:17:37.991Z,87.55
2022-10-28T09:20:08.624Z,83.09
2022-10-28T09:22:39.734Z,77.64
2022-10-28T09:25:13.815Z,77.27
2022-10-28T09:27:48.050Z,77.19
2022-10-28T09:30:24.729Z,71.20
2022-10-28T09:32:55.565Z,70.46
2022-10-28T09:35:25.445Z,71.58
2022-10-28T09:37:56.097Z,69.45
2022-10-28T09:40:26.358Z,70.87
2022-10-28T09:42:58.290Z,69.71
2022-10-28T09:45:28.108Z,69.31
2022-10-28T09:47:58.073Z,68.96
2022-10-28T09:50:29.502Z,68.83
2022-10-28T09:53:00.362Z,73.31
2022-10-28T09:55:30.220Z,72.97
2022-10-28T09:57:58.601Z,76.77
2022-10-28T10:00:26.706Z,79.72
2022-10-28T10:02:57.642Z,78.89
2022-10-28T10:05:25.943Z,81.41
2022-10-28T10:07:56.558Z,82.98
2022-10-28T10:10:27.040Z,82.14
2022-10-28T10:12:58.650Z,83.01
2022-10-28T10:15:31.063Z,81.08
2022-10-28T10:17:59.841Z,80.22
2022-10-28T10:20:28.070Z,76.49
2022-10-28T10:22:56.441Z,75.92
2022-10-28T10:25:29.936Z,74.92
2022-10-28T10:28:01.220Z,79.27
2022-10-28T10:30:31.387Z,78.58
2022-10-28T10:32:59.520Z,75.93
2022-10-28T10:35:28.777Z,77.13
2022-10-28T10:37:57.601Z,76.87
2022-10-28T10:40:26.484Z,74.42
2022-10-28T10:43:10.075Z,75.65
2022-10-28T10:45:43.051Z,75.46
2022-10-28T10:48:14.893Z,75.69
2022-10-28T10:50:43.366Z,75.72
2022-10-28T10:53:22.536Z,76.16
2022-10-28T10:55:51.831Z,72.93
2022-10-28T10:58:20.942Z,71.38
2022-10-28T11:00:51.159Z,70.79
2022-10-28T11:03:21.600Z,70.88
2022-10-28T11:05:55.168Z,67.00
2022-10-28T11:08:36.078Z,65.57
2022-10-28T11:11:06.078Z,63.68
2022-10-28T11:13:34.149Z,62.20
2022-10-28T11:16:04.294Z,61.67
2022-10-28T11:18:41.515Z,64.51
2022-10-28T11:21:15.553Z,65.03
2022-10-28T11:23:47.575Z,66.08
2022-10-28T11:26:15.769Z,65.73
2022-10-28T11:29:03.788Z,65.03
2022-10-28T11:31:46.235Z,64.56
2022-10-28T11:34:24.492Z,66.81
2022-10-28T11:36:55.945Z,65.95
2022-10-28T11:39:26.823Z,66.58
2022-10-28T11:42:02.033Z,65.59
2022-10-28T11:44:37.115Z,66.84
2022-10-28T11:47:13.357Z,69.80
2022-10-28T11:50:11.189Z,70.64
2022-10-28T11:52:54.974Z,72.29
2022-10-28T11:55:27.799Z,72.37
2022-10-28T11:58:03.015Z,73.92
2022-10-28T12:00:48.310Z,71.68
2022-10-28T12:03:48.676Z,73.35
2022-10-28T12:06:18.472Z,74.31
2022-10-28T12:08:54.437Z,73.76
2022-10-28T12:11:27.385Z,72.68
2022-10-28T12:13:58.665Z,72.86
2022-10-28T12:16:30.750Z,71.93
2022-10-28T12:19:01.287Z,72.79
2022-10-28T12:21:31.494Z,74.65
2022-10-28T12:24:00.020Z,74.14
2022-10-28T12:26:34.304Z,73.90
2022-10-28T12:29:03.309Z,73.79
2022-10-28T12:31:33.573Z,75.26
2022-10-28T12:34:05.495Z,76.87
2022-10-28T12:36:35.588Z,77.58
2022-10-28T12:39:05.571Z,78.12
2022-10-28T12:41:45.805Z,76.82
2022-10-28T12:44:14.773Z,77.61
2022-10-28T12:49:21.206Z,79.38
2022-10-28T12:51:49.320Z,78.82
2022-10-28T12:54:21.246Z,79.65
2022-10-28T12:56:52.823Z,78.03
2022-10-28T12:59:24.222Z,76.42
2022-10-28T13:01:52.487Z,75.36
2022-10-28T13:04:22.124Z,69.50
2022-10-28T13:07:09.446Z,66.91
2022-10-28T13:09:45.218Z,66.44
2022-10-28T13:12:35.596Z,66.62
2022-10-28T13:15:12.115Z,66.49
2022-10-28T13:17:45.105Z,67.30
2022-10-28T13:20:18.517Z,67.96
2022-10-28T13:22:54.892Z,66.76
2022-10-28T13:25:39.834Z,63.25
2022-10-28T13:28:12.591Z,63.34
2022-10-28T13:30:52.579Z,63.33
2022-10-28T13:33:22.960Z,63.04
2022-10-28T13:38:26.681Z,62.05
2022-10-28T13:41:12.884Z,61.95
2022-10-28T13:44:30.433Z,61.99
2022-10-28T13:47:28.525Z,62.61
2022-10-28T13:50:42.126Z,63.42
2022-10-28T13:53:42.779Z,63.69
2022-10-28T13:56:48.421Z,62.12
2022-10-28T13:59:30.797Z,63.95
2022-10-28T14:02:32.502Z,62.44
2022-10-28T14:04:56.173Z,60.09
2022-10-28T14:07:26.743Z,61.03
2022-10-28T14:09:58.479Z,61.93
2022-10-28T14:12:31.092Z,60.96
2022-10-28T14:15:05.233Z,61.67
2022-10-28T14:17:38.309Z,61.10
2022-10-28T14:20:08.293Z,60.39
2022-10-28T14:22:37.251Z,62.17
2022-10-28T14:25:17.660Z,59.83
2022-10-28T14:27:48.022Z,60.69
2022-10-28T14:30:22.502Z,60.22
2022-10-28T14:33:26.829Z,59.94
2022-10-28T14:36:12.252Z,62.01
2022-10-28T14:38:52.825Z,62.53
2022-10-28T14:41:48.044Z,62.11
2022-10-28T14:44:22.859Z,63.65
2022-10-28T14:46:57.369Z,65.44
2022-10-28T14:49:26.376Z,65.46
2022-10-28T14:51:54.607Z,63.98
2022-10-28T14:54:29.224Z,65.53
2022-10-28T14:56:58.724Z,64.83
2022-10-28T14:59:27.952Z,64.57
2022-10-28T15:02:01.669Z,65.72
2022-10-28T15:04:30.022Z,66.99
2022-10-28T15:06:58.196Z,66.97
2022-10-28T15:09:27.261Z,65.48
2022-10-28T15:11:57.219Z,65.93
2022-10-28T15:14:32.005Z,66.06
2022-10-28T15:17:00.625Z,66.92
2022-10-28T15:19:30.230Z,66.96
2022-10-28T15:22:05.897Z,66.49
2022-10-28T15:24:34.165Z,67.76
2022-10-28T15:27:02.292Z,67.79
2022-10-28T15:29:31.822Z,67.36
2022-10-28T15:32:13.586Z,67.37
2022-10-28T15:34:42.067Z,66.93
2022-10-28T15:37:10.173Z,66.13
2022-10-28T15:39:39.168Z,65.96
2022-10-28T15:42:30.858Z,67.18
2022-10-28T15:45:00.414Z,65.82
2022-10-28T15:47:33.075Z,65.86
2022-10-28T15:50:04.929Z,66.26
2022-10-28T15:52:38.235Z,66.41
2022-10-28T15:55:35.639Z,66.75
2022-10-28T15:58:35.971Z,66.81
2022-10-28T16:01:09.868Z,66.46
2022-10-28T16:03:45.700Z,66.50
2022-10-28T16:06:24.982Z,66.94
2022-10-28T16:09:07.634Z,66.61
2022-10-28T16:11:39.375Z,67.48
2022-10-28T16:14:16.140Z,68.33
2022-10-28T16:16:45.687Z,68.33
2022-10-28T16:19:19.857Z,69.08
2022-10-28T16:21:48.304Z,69.72
2022-10-28T16:24:16.436Z,70.39
2022-10-28T16:26:44.565Z,69.94
2022-10-28T16:29:12.839Z,71.51
2022-10-28T16:31:41.732Z,71.13
2022-10-28T16:34:14.045Z,72.09
2022-10-28T16:36:42.183Z,72.22
2022-10-28T16:39:12.928Z,71.73
2022-10-28T16:41:41.251Z,72.52
2022-10-28T16:44:13.255Z,72.81
2022-10-28T16:46:41.979Z,72.26
2022-10-28T16:49:10.043Z,72.20
2022-10-28T16:51:39.915Z,72.89
2022-10-28T16:54:08.158Z,72.91
2022-10-28T16:56:36.278Z,74.53
2022-10-28T16:59:04.438Z,74.55
2022-10-28T17:01:32.843Z,74.70
2022-10-28T17:04:01.084Z,74.35
2022-10-28T17:06:29.187Z,73.69
2022-10-28T17:09:03.361Z,74.14
2022-10-28T17:14:00.295Z,74.91
2022-10-28T17:16:28.445Z,74.82
2022-10-28T17:18:56.546Z,75.44
2022-10-28T17:21:24.722Z,75.50
2022-10-28T17:23:53.219Z,74.69
2022-10-28T17:26:23.404Z,74.42
2022-10-28T17:28:54.905Z,74.65
2022-10-28T17:31:25.127Z,74.94
2022-10-28T17:33:57.267Z,73.77
2022-10-28T17:36:25.918Z,73.86
2022-10-28T17:38:54.496Z,74.00
2022-10-28T17:41:25.182Z,73.20
2022-10-28T17:43:54.433Z,74.48
2022-10-28T17:46:23.019Z,76.31
2022-10-28T17:48:51.360Z,77.79
2022-10-28T17:51:20.986Z,78.67
2022-10-28T17:53:49.192Z,78.66
2022-10-28T17:56:17.667Z,79.33
2022-10-28T17:58:47.236Z,80.78
2022-10-28T18:01:15.441Z,80.73
2022-10-28T18:03:43.975Z,81.69
2022-10-28T18:06:13.578Z,79.26
2022-10-28T18:08:43.356Z,77.59
2022-10-28T18:11:13.407Z,76.55
2022-10-28T18:13:42.502Z,74.62
2022-10-28T18:16:12.805Z,74.83
2022-10-28T18:18:42.716Z,74.43
2022-10-28T18:21:11.822Z,74.09
2022-10-28T18:23:41.113Z,74.08
2022-10-28T18:26:10.936Z,73.67
2022-10-28T18:28:39.304Z,74.03
2022-10-28T18:31:08.480Z,73.82
2022-10-28T18:33:37.984Z,74.91
2022-10-28T18:36:07.056Z,76.29
2022-10-28T18:38:35.202Z,77.88
2022-10-28T18:41:03.261Z,78.74
2022-10-28T18:43:31.419Z,78.33
2022-10-28T18:46:01.625Z,78.12
2022-10-28T18:48:30.900Z,79.08
2022-10-28T18:51:01.197Z,79.65
2022-10-28T18:53:29.320Z,78.87
2022-10-28T18:56:01.000Z,78.06
2022-10-28T18:58:29.202Z,77.92
2022-10-28T19:01:05.435Z,77.18
2022-10-28T19:03:33.520Z,77.16
2022-10-28T19:06:06.660Z,76.95
2022-10-28T19:08:34.801Z,76.71
2022-10-28T19:11:03.266Z,76.47
2022-10-28T19:13:33.816Z,75.10
2022-10-28T19:16:02.020Z,74.67
2022-10-28T19:18:30.329Z,73.39
2022-10-28T19:21:04.371Z,73.03
2022-10-28T19:23:34.164Z,72.35
2022-10-28T19:26:03.925Z,74.42
2022-10-28T19:28:32.459Z,74.97
2022-10-28T19:31:01.886Z,74.99
2022-10-28T19:33:30.081Z,75.11
2022-10-28T19:36:02.616Z,75.89
2022-10-28T19:38:36.287Z,75.12
2022-10-28T19:41:08.451Z,74.78
2022-10-28T19:43:37.938Z,75.08
2022-10-28T19:46:11.361Z,75.01
2022-10-28T19:48:40.110Z,73.59
2022-10-28T19:51:08.411Z,73.61
2022-10-28T19:53:37.955Z,73.86
2022-10-28T19:56:06.610Z,73.15
2022-10-28T19:58:35.057Z,71.84
2022-10-28T20:01:04.534Z,72.68
2022-10-28T20:03:34.625Z,71.34
2022-10-28T20:06:05.544Z,70.83
2022-10-28T20:08:38.856Z,70.31
2022-10-28T20:11:07.843Z,69.77
2022-10-28T20:13:36.422Z,70.15
2022-10-28T20:16:05.733Z,69.73
2022-10-28T20:18:34.135Z,69.15
2022-10-28T20:21:06.561Z,68.80
2022-10-28T20:23:35.876Z,68.31
2022-10-28T20:26:05.670Z,67.88
2022-10-28T20:28:33.870Z,67.68
2022-10-28T20:31:03.286Z,68.98
2022-10-28T20:33:31.536Z,69.32
2022-10-28T20:35:59.979Z,69.82
2022-10-28T20:38:28.256Z,69.74
2022-10-28T20:40:57.341Z,71.94
2022-10-28T20:43:27.553Z,71.75
2022-10-28T20:45:56.585Z,70.98
2022-10-28T20:48:24.686Z,71.79
2022-10-28T20:50:54.059Z,72.29
2022-10-28T20:53:23.407Z,71.52
2022-10-28T20:55:52.409Z,71.56
2022-10-28T20:58:20.835Z,72.09
2022-10-28T21:00:50.415Z,72.43
2022-10-28T21:03:18.818Z,73.54
2022-10-28T21:05:47.080Z,74.59
2022-10-28T21:08:15.249Z,77.43
2022-10-28T21:10:43.474Z,77.83
2022-10-28T21:13:11.622Z,77.83
2022-10-28T21:15:40.499Z,77.95
2022-10-28T21:18:10.256Z,78.43
2022-10-28T21:20:38.604Z,77.30
2022-10-28T21:23:06.797Z,77.87
2022-10-28T21:25:34.915Z,78.40
2022-10-28T21:28:03.020Z,76.22
2022-10-28T21:30:31.091Z,76.26
2022-10-28T21:32:59.248Z,76.03
2022-10-28T21:35:28.813Z,77.10
2022-10-28T21:37:57.356Z,74.44
2022-10-28T21:40:25.755Z,74.00
2022-10-28T21:42:53.951Z,73.88
2022-10-28T21:45:24.228Z,73.83
2022-10-28T21:47:55.554Z,75.03
2022-10-28T21:50:24.049Z,75.40
2022-10-28T21:52:53.545Z,76.45
2022-10-28T21:55:41.729Z,76.69
2022-10-28T21:58:09.801Z,76.93
2022-10-28T22:00:38.482Z,76.76
2022-10-28T22:03:06.693Z,77.35
2022-10-28T22:05:34.799Z,77.35
2022-10-28T22:08:05.161Z,77.64
2022-10-28T22:10:33.584Z,77.98
2022-10-28T22:13:01.957Z,77.04
2022-10-28T22:15:30.077Z,77.87
2022-10-28T22:17:58.560Z,79.44
2022-10-28T22:20:26.946Z,79.55
2022-10-28T22:22:55.464Z,79.85
2022-10-28T22:25:25.570Z,79.54
2022-10-28T22:27:53.708Z,78.47
2022-10-28T22:30:21.844Z,79.08
2022-10-28T22:32:50.213Z,80.11
2022-10-28T22:35:18.328Z,78.87
2022-10-28T22:37:46.507Z,79.13
2022-10-28T22:40:15.080Z,79.47
2022-10-28T22:42:44.641Z,79.45
2022-10-28T22:45:12.819Z,78.96
2022-10-28T22:47:40.988Z,78.62
2022-10-28T22:50:09.693Z,78.45
2022-10-28T22:52:38.082Z,78.40
2022-10-28T22:55:06.846Z,78.07
2022-10-28T22:57:34.987Z,77.97
2022-10-28T23:00:04.737Z,78.42
2022-10-28T23:02:33.097Z,78.10
2022-10-28T23:05:01.280Z,78.70
2022-10-28T23:07:29.791Z,78.93
2022-10-28T23:09:58.855Z,78.42
2022-10-28T23:12:26.948Z,78.24
2022-10-28T23:14:55.893Z,78.35
2022-10-28T23:17:25.435Z,78.77
2022-10-28T23:19:54.114Z,77.81
2022-10-28T23:22:22.263Z,77.90
2022-10-28T23:24:50.398Z,77.59
2022-10-28T23:27:18.580Z,77.47
2022-10-28T23:29:46.692Z,77.62
2022-10-28T23:32:15.073Z,76.62
2022-10-28T23:34:44.622Z,76.60
2022-10-28T23:37:12.762Z,76.38
2022-10-28T23:39:40.913Z,76.81
2022-10-28T23:42:09.015Z,77.37
2022-10-28T23:44:37.130Z,77.29
2022-10-28T23:47:05.643Z,77.03
2022-10-28T23:49:33.750Z,77.27
2022-10-28T23:52:03.354Z,76.76
2022-10-28T23:54:31.476Z,77.88
2022-10-28T23:56:59.578Z,77.61
2022-10-28T23:59:27.674Z,78.56
